Delta Virtual Airport Information Service

London Gatwick Airport

ICAO: EGKK Country: United Kingdom
Latitude: 51.148 Longitude: -0.19027
Latest Arrival : TRA4775 (LCPH-EGKK) Latest Departure : EZY8951 (3) (EGKK-LOWW)


WX CaptureLIVE
Data provided by noaa.gov | Fetched at 22:07:05

METAR : EGKK 240250Z VRB01KT 9999 FEW018 09/07 Q1008

TAF : EGKK 232305Z 2400/2506 21005KT 9999 SCT030 TEMPO 2400/2406 8000 BECMG 2408/2411 19020G30KT PROB30 TEMPO 2410/2416 7000 -RA BKN012 PROB40 TEMPO 2415/2418 20025G42KT TEMPO 2416/2424 6000 RA SHRA PROB40 TEMPO 2416/2424 3000 +SHRA BKN012 BECMG 2417/2419 19012KT TEMPO 2419/2501 20015G25KT PROB30 TEMPO 2419/2423 20020G35KT


Runway Data for EGKK
Data provided by openaviationdata.com

Runway ID Mag Var Hdg Length Elevation Surface ILS Freq ILS Id ILS Slope
08L -1 78° 8394 ft 196 ft Asphalt -- -- --
08R -1 78° 10352 ft 196 ft Asphalt 110.9 IGG 3
26L -1 258° 10352 ft 196 ft Asphalt 110.9 IWW 3
26R -1 258° 8394 ft 196 ft Asphalt -- -- --

London Gatwick Airport, United Kingdom
Use only for reference purposes



Not for navigational purposes.